Time;durP1;ratioP1;P1;durP2;ratioP2;P2;SDS_P1;SDS_P2;PMS_P1;PMS_P2;Temp;Humidity;BMP_temperature;BMP_pressure;BME280_temperature;BME280_humidity;BME280_pressure;Samples;Min_cycle;Max_cycle;Signal;HPM_P1;HPM_P2
2022/06/25 00:01:48;;;;;;;1.30;1.20;;;23.90;59.30;;;;;;5013363;28;20223;-66
2022/06/25 00:06:58;;;;;;;1.25;1.15;;;23.90;59.30;;;;;;5012669;28;20624;-67
2022/06/25 00:09:23;;;;;;;1.73;1.23;;;23.90;59.30;;;;;;5013452;28;20646;-67
2022/06/25 00:14:33;;;;;;;2.55;1.30;;;23.80;59.20;;;;;;5013549;28;20178;-67
2022/06/25 00:16:58;;;;;;;1.55;1.35;;;23.90;59.30;;;;;;5013186;28;20546;-67
2022/06/25 00:19:24;;;;;;;1.30;1.20;;;23.80;59.20;;;;;;5012745;28;20649;-66
2022/06/25 00:21:50;;;;;;;1.15;1.05;;;23.90;59.30;;;;;;5012884;28;20187;-66
2022/06/25 00:24:18;;;;;;;1.23;1.10;;;23.90;59.30;;;;;;5013511;28;20184;-67
2022/06/25 00:26:44;;;;;;;1.67;1.33;;;23.80;59.30;;;;;;5012271;28;20662;-67
2022/06/25 00:29:10;;;;;;;2.08;1.70;;;23.80;59.60;;;;;;5013334;28;20184;-67
2022/06/25 00:31:38;;;;;;;1.50;1.30;;;23.80;59.30;;;;;;5013191;28;20215;-67
2022/06/25 00:34:04;;;;;;;1.20;0.98;;;23.80;59.20;;;;;;5012483;28;20179;-66
2022/06/25 00:36:29;;;;;;;1.35;1.20;;;23.80;59.30;;;;;;5013203;28;20173;-66
2022/06/25 00:38:55;;;;;;;2.08;1.25;;;23.80;59.20;;;;;;5013069;28;20184;-66
2022/06/25 00:41:21;;;;;;;1.40;1.30;;;23.80;59.20;;;;;;5012572;28;20706;-67
2022/06/25 00:43:46;;;;;;;2.25;1.30;;;23.80;59.20;;;;;;5012965;28;20176;-67
2022/06/25 00:46:12;;;;;;;1.35;1.25;;;23.80;59.20;;;;;;5013025;28;20206;-67
2022/06/25 00:48:37;;;;;;;2.10;1.38;;;23.80;59.20;;;;;;5012220;28;20275;-67
2022/06/25 00:51:11;;;;;;;1.15;1.15;;;23.80;59.20;;;;;;5013008;28;20597;-68
2022/06/25 00:53:36;;;;;;;1.33;1.25;;;23.80;59.30;;;;;;5012863;28;20623;-68
2022/06/25 00:56:03;;;;;;;1.30;1.20;;;23.70;59.20;;;;;;5012393;28;20187;-67
2022/06/25 00:58:30;;;;;;;1.40;1.30;;;23.70;59.20;;;;;;4979544;28;20650;-67
2022/06/25 01:00:57;;;;;;;1.30;1.20;;;23.80;59.20;;;;;;5012729;28;20211;-66
2022/06/25 01:03:25;;;;;;;2.78;1.15;;;23.80;59.20;;;;;;5012088;28;20286;-66
2022/06/25 01:05:50;;;;;;;1.40;1.30;;;23.70;59.20;;;;;;5012413;28;20559;-66
2022/06/25 01:08:17;;;;;;;1.30;1.20;;;23.80;59.20;;;;;;5012357;28;20702;-66
2022/06/25 01:10:43;;;;;;;1.60;1.20;;;23.70;59.20;;;;;;5012734;28;20267;-67
2022/06/25 01:13:08;;;;;;;2.00;1.35;;;23.70;59.20;;;;;;4995438;28;20322;-67
2022/06/25 01:15:34;;;;;;;1.45;1.30;;;23.70;59.20;;;;;;5012211;28;20172;-66
2022/06/25 01:18:00;;;;;;;2.80;1.40;;;23.70;59.30;;;;;;5012730;28;20288;-66
2022/06/25 01:20:25;;;;;;;2.28;1.42;;;23.70;59.20;;;;;;5012825;28;20180;-66
2022/06/25 01:22:51;;;;;;;2.05;1.60;;;23.70;59.20;;;;;;5011751;28;20188;-67
2022/06/25 01:25:17;;;;;;;1.95;1.20;;;23.70;59.10;;;;;;5012881;28;20175;-67
2022/06/25 01:27:43;;;;;;;1.65;1.33;;;23.70;59.20;;;;;;5015174;28;20172;-67
2022/06/25 01:30:09;;;;;;;2.03;1.17;;;23.70;59.20;;;;;;5015618;28;20275;-67
2022/06/25 01:32:35;;;;;;;1.67;1.35;;;23.70;59.20;;;;;;5016458;28;20184;-66
2022/06/25 01:35:01;;;;;;;3.50;1.45;;;23.70;59.20;;;;;;5016380;28;20203;-66
2022/06/25 01:37:26;;;;;;;1.38;1.17;;;23.70;59.20;;;;;;5015810;28;20191;-66
2022/06/25 01:39:55;;;;;;;1.50;1.40;;;23.70;59.20;;;;;;5016089;28;20201;-65
2022/06/25 01:45:12;;;;;;;1.58;1.40;;;23.70;59.20;;;;;;5015444;28;20175;-66
2022/06/25 01:47:37;;;;;;;1.52;1.38;;;23.70;59.10;;;;;;5015827;28;20662;-67
2022/06/25 01:50:03;;;;;;;1.73;1.30;;;23.70;59.10;;;;;;5016202;28;20192;-67
2022/06/25 01:52:29;;;;;;;1.67;1.10;;;23.70;59.10;;;;;;5015254;28;20552;-67
2022/06/25 01:54:54;;;;;;;1.50;1.40;;;23.60;59.10;;;;;;5015801;28;20221;-67
2022/06/25 01:57:20;;;;;;;1.50;1.40;;;23.70;59.10;;;;;;5015461;28;20207;-67
2022/06/25 01:59:47;;;;;;;1.30;1.20;;;23.70;59.10;;;;;;5015583;28;20173;-66
2022/06/25 02:02:12;;;;;;;1.00;1.00;;;23.70;59.20;;;;;;5015895;28;20228;-67
2022/06/25 02:04:38;;;;;;;2.08;1.20;;;23.60;59.10;;;;;;5015043;28;20191;-66
2022/06/25 02:07:04;;;;;;;1.63;1.25;;;23.60;59.10;;;;;;5015819;28;20223;-66
2022/06/25 02:09:29;;;;;;;1.45;1.23;;;23.60;59.10;;;;;;5015964;28;20188;-66
2022/06/25 02:11:55;;;;;;;1.88;1.52;;;23.70;59.10;;;;;;5014720;28;20586;-67
2022/06/25 02:14:20;;;;;;;2.40;1.52;;;23.60;59.10;;;;;;5015574;28;20238;-66
2022/06/25 02:16:46;;;;;;;1.25;0.93;;;23.60;59.10;;;;;;5015243;28;20241;-66
2022/06/25 02:19:11;;;;;;;2.30;1.30;;;23.60;59.10;;;;;;5015220;28;20239;-66
2022/06/25 02:21:37;;;;;;;1.27;1.02;;;23.60;59.10;;;;;;5015388;28;20180;-66
2022/06/25 02:24:03;;;;;;;3.25;1.85;;;23.60;59.00;;;;;;5015338;28;20180;-67
2022/06/25 02:26:28;;;;;;;2.00;1.20;;;23.60;59.10;;;;;;5014723;28;20208;-67
2022/06/25 02:28:54;;;;;;;1.60;1.50;;;23.60;59.00;;;;;;5015114;28;21049;-67
2022/06/25 02:31:19;;;;;;;1.73;1.55;;;23.60;59.10;;;;;;5015223;28;20678;-67
2022/06/25 02:33:45;;;;;;;1.73;1.25;;;23.60;59.10;;;;;;5014604;28;20176;-66
2022/06/25 02:36:10;;;;;;;1.30;1.20;;;23.60;59.10;;;;;;5015353;28;20267;-67
2022/06/25 02:38:36;;;;;;;1.35;1.25;;;23.60;59.10;;;;;;5013868;28;20172;-66
2022/06/25 02:41:01;;;;;;;1.30;1.20;;;23.60;59.10;;;;;;5014305;28;20172;-66
2022/06/25 02:43:27;;;;;;;1.48;1.38;;;23.60;59.10;;;;;;5015088;28;20168;-67
2022/06/25 02:45:52;;;;;;;3.55;1.27;;;23.60;59.10;;;;;;5014613;28;20208;-66
2022/06/25 02:48:18;;;;;;;3.05;1.45;;;23.60;59.10;;;;;;5014519;28;20168;-67
2022/06/25 02:50:43;;;;;;;1.42;1.33;;;23.60;59.00;;;;;;5014841;28;20172;-68
2022/06/25 02:53:09;;;;;;;1.15;1.05;;;23.60;59.10;;;;;;5014989;28;20172;-68
2022/06/25 03:01:02;;;;;;;2.60;1.33;;;23.50;59.00;;;;;;5014035;28;20253;-67
2022/06/25 03:03:28;;;;;;;1.67;1.27;;;23.50;59.00;;;;;;5014596;28;20307;-67
2022/06/25 03:05:53;;;;;;;1.60;1.30;;;23.50;59.00;;;;;;5014382;28;20242;-66
2022/06/25 03:08:19;;;;;;;2.67;1.30;;;23.50;59.00;;;;;;5013928;28;20254;-66
2022/06/25 03:10:45;;;;;;;2.38;1.20;;;23.50;59.00;;;;;;5014212;28;20600;-66
2022/06/25 03:13:10;;;;;;;2.47;1.20;;;23.50;59.00;;;;;;5014588;28;20211;-67
2022/06/25 03:15:36;;;;;;;1.98;1.20;;;23.50;59.00;;;;;;5013663;28;20275;-66
2022/06/25 03:18:02;;;;;;;2.05;1.15;;;23.50;59.00;;;;;;5014588;28;20168;-66
2022/06/25 03:20:27;;;;;;;3.08;1.20;;;23.50;59.00;;;;;;5014534;28;20183;-66
2022/06/25 03:22:53;;;;;;;1.67;1.33;;;23.50;59.10;;;;;;5013483;28;20226;-67
2022/06/25 03:25:18;;;;;;;1.20;1.10;;;23.50;59.00;;;;;;5014259;28;20172;-67
2022/06/25 03:27:44;;;;;;;1.80;1.20;;;23.50;59.00;;;;;;5013792;28;20173;-67
2022/06/25 03:30:09;;;;;;;1.38;1.25;;;23.50;59.00;;;;;;5013141;28;20168;-67
2022/06/25 03:32:35;;;;;;;1.08;1.08;;;23.50;59.00;;;;;;5014001;28;20176;-66
2022/06/25 03:35:00;;;;;;;2.95;1.35;;;23.50;59.00;;;;;;5012527;28;20580;-66
2022/06/25 03:37:26;;;;;;;1.35;1.20;;;23.50;59.00;;;;;;5013338;28;20173;-66
2022/06/25 03:39:51;;;;;;;1.48;1.38;;;23.50;59.00;;;;;;5013662;28;20180;-66
2022/06/25 03:42:17;;;;;;;2.22;1.15;;;23.50;59.00;;;;;;5014285;28;20173;-67
2022/06/25 03:44:42;;;;;;;1.63;1.00;;;23.50;59.00;;;;;;5013246;28;20200;-67
2022/06/25 03:47:08;;;;;;;2.55;1.35;;;23.50;58.90;;;;;;5013963;28;20212;-67
2022/06/25 03:49:33;;;;;;;1.65;1.20;;;23.40;58.90;;;;;;5013544;28;20177;-67
2022/06/25 03:51:59;;;;;;;0.90;0.90;;;23.50;58.90;;;;;;5012708;28;20650;-68
2022/06/25 03:54:24;;;;;;;1.30;1.20;;;23.50;58.90;;;;;;5013451;28;20172;-67
2022/06/25 03:56:50;;;;;;;1.45;1.30;;;23.50;58.90;;;;;;5013590;28;20181;-67
2022/06/25 03:59:16;;;;;;;1.17;1.08;;;23.50;58.90;;;;;;5013020;28;20683;-67
2022/06/25 04:01:41;;;;;;;2.28;1.30;;;23.50;58.90;;;;;;5013375;28;20227;-66
2022/06/25 04:04:07;;;;;;;2.78;1.08;;;23.50;58.90;;;;;;5013080;28;20188;-67
2022/06/25 04:06:32;;;;;;;1.27;1.10;;;23.50;58.90;;;;;;5013615;28;20215;-66
2022/06/25 04:08:58;;;;;;;1.40;1.20;;;23.50;58.90;;;;;;5013410;28;20196;-67
2022/06/25 04:11:24;;;;;;;2.35;1.33;;;23.50;58.80;;;;;;5012690;28;20650;-67
2022/06/25 04:13:49;;;;;;;2.05;1.40;;;23.50;58.80;;;;;;5013368;28;20183;-66
2022/06/25 04:16:15;;;;;;;2.50;1.30;;;23.50;58.80;;;;;;5013637;28;20168;-67
2022/06/25 04:18:40;;;;;;;3.33;1.25;;;23.50;58.80;;;;;;5012532;28;20169;-66
2022/06/25 04:21:06;;;;;;;2.65;1.40;;;23.50;58.80;;;;;;5013389;28;20180;-66
2022/06/25 04:23:31;;;;;;;1.00;1.00;;;23.50;58.70;;;;;;5013329;28;20173;-66
2022/06/25 04:25:57;;;;;;;1.38;1.30;;;23.50;58.70;;;;;;5012259;28;20208;-67
2022/06/25 04:31:07;;;;;;;1.27;1.20;;;23.50;58.80;;;;;;5013196;28;20234;-66
2022/06/25 04:33:32;;;;;;;1.63;1.10;;;23.50;58.80;;;;;;5012646;28;20184;-66
2022/06/25 04:35:58;;;;;;;1.05;1.05;;;23.50;58.80;;;;;;5013044;28;20168;-66
2022/06/25 04:38:23;;;;;;;1.23;1.10;;;23.50;58.70;;;;;;5013264;28;20230;-66
2022/06/25 04:40:49;;;;;;;2.50;1.52;;;23.50;58.70;;;;;;5012374;28;20251;-66
2022/06/25 04:43:15;;;;;;;2.08;1.25;;;23.50;58.70;;;;;;5013249;28;20172;-67
2022/06/25 04:45:40;;;;;;;2.38;1.50;;;23.50;58.70;;;;;;5012975;28;20218;-67
2022/06/25 04:48:06;;;;;;;0.82;0.82;;;23.50;59.30;;;;;;5012289;28;20180;-68
2022/06/25 04:50:32;;;;;;;1.45;1.20;;;23.50;58.70;;;;;;5013177;28;20227;-67
2022/06/25 04:52:57;;;;;;;1.48;1.38;;;23.50;58.70;;;;;;5012756;28;20180;-67
2022/06/25 04:55:23;;;;;;;2.00;1.27;;;23.50;58.70;;;;;;5012463;28;20164;-67
2022/06/25 04:57:48;;;;;;;2.00;1.30;;;23.50;58.60;;;;;;5012836;28;20172;-67
2022/06/25 05:00:14;;;;;;;2.08;1.45;;;23.60;58.70;;;;;;5012259;28;20180;-66
2022/06/25 05:02:39;;;;;;;1.55;1.38;;;23.60;58.70;;;;;;5015265;28;20228;-66
2022/06/25 05:05:06;;;;;;;1.02;1.02;;;23.60;58.60;;;;;;5016892;28;20527;-66
2022/06/25 05:07:31;;;;;;;1.30;1.20;;;23.60;58.60;;;;;;5015982;28;20995;-66
2022/06/25 05:09:57;;;;;;;3.15;1.48;;;23.60;58.60;;;;;;5016817;28;20172;-66
2022/06/25 05:15:07;;;;;;;1.45;1.30;;;23.60;58.70;;;;;;5015990;28;20246;-66
2022/06/25 05:17:33;;;;;;;1.52;1.20;;;23.60;58.60;;;;;;5016850;28;20593;-66
2022/06/25 05:19:59;;;;;;;2.58;1.30;;;23.60;58.50;;;;;;5016299;28;20626;-66
2022/06/25 05:22:24;;;;;;;1.27;1.10;;;23.60;58.50;;;;;;5015885;28;20209;-67
2022/06/25 05:24:50;;;;;;;2.72;1.27;;;23.60;58.50;;;;;;5016440;28;20263;-66
2022/06/25 05:27:15;;;;;;;1.02;0.93;;;23.60;58.50;;;;;;5016705;28;20688;-67
2022/06/25 05:29:41;;;;;;;1.23;1.10;;;23.60;58.60;;;;;;5015591;28;20247;-66
2022/06/25 05:32:07;;;;;;;1.88;1.00;;;23.60;58.50;;;;;;5016374;28;20650;-66
2022/06/25 05:34:32;;;;;;;1.40;1.10;;;23.60;58.50;;;;;;5016517;28;20179;-66
2022/06/25 05:36:58;;;;;;;2.20;1.27;;;23.60;58.50;;;;;;5015515;28;20169;-66
2022/06/25 05:39:23;;;;;;;2.60;1.23;;;23.70;58.50;;;;;;5016459;28;20173;-66
2022/06/25 05:41:49;;;;;;;2.53;1.30;;;23.70;58.50;;;;;;5016058;28;20541;-66
2022/06/25 05:44:14;;;;;;;2.00;1.27;;;23.70;58.50;;;;;;5015579;28;20653;-67
2022/06/25 05:46:40;;;;;;;1.75;1.27;;;23.70;58.40;;;;;;5016013;28;20203;-67
2022/06/25 05:49:05;;;;;;;1.02;0.93;;;23.70;58.40;;;;;;5016077;28;20172;-68
2022/06/25 05:51:31;;;;;;;1.90;1.20;;;23.70;58.50;;;;;;5015640;28;20184;-67
2022/06/25 05:53:56;;;;;;;1.15;1.13;;;23.70;58.40;;;;;;5015938;28;20219;-67
2022/06/25 05:56:22;;;;;;;1.58;1.23;;;23.70;58.40;;;;;;5016170;28;20180;-67
2022/06/25 05:58:47;;;;;;;1.33;1.23;;;23.70;58.40;;;;;;5014752;28;20549;-67
2022/06/25 06:01:13;;;;;;;1.30;1.20;;;23.70;58.50;;;;;;5015800;28;20654;-67
2022/06/25 06:03:38;;;;;;;1.45;1.02;;;23.70;58.50;;;;;;5014882;28;20177;-66
2022/06/25 06:06:04;;;;;;;1.30;1.20;;;23.70;58.50;;;;;;5015909;28;20211;-66
2022/06/25 06:08:29;;;;;;;1.30;1.10;;;23.60;58.50;;;;;;5015935;28;20205;-66
2022/06/25 06:10:55;;;;;;;0.90;0.90;;;23.60;58.60;;;;;;5014863;28;20604;-67
2022/06/25 06:13:20;;;;;;;2.65;1.20;;;23.70;58.60;;;;;;5015732;28;20714;-67
2022/06/25 06:15:46;;;;;;;1.50;1.40;;;23.60;58.60;;;;;;5015373;28;20169;-66
2022/06/25 06:18:12;;;;;;;1.27;1.10;;;23.60;58.60;;;;;;5014955;28;20176;-67
2022/06/25 06:20:37;;;;;;;1.30;1.20;;;23.60;58.50;;;;;;5015288;28;20184;-66
2022/06/25 06:23:03;;;;;;;1.23;1.13;;;23.70;58.60;;;;;;5015537;28;20176;-67
2022/06/25 06:25:29;;;;;;;1.33;1.15;;;23.70;58.50;;;;;;5014834;28;20180;-67
2022/06/25 06:27:54;;;;;;;2.67;1.30;;;23.70;58.50;;;;;;5015090;28;20331;-67
2022/06/25 06:30:20;;;;;;;1.42;1.30;;;23.70;58.40;;;;;;5015282;28;20757;-65
2022/06/25 06:32:46;;;;;;;1.25;1.13;;;23.70;58.30;;;;;;5014305;28;20190;-66
2022/06/25 06:35:11;;;;;;;5.07;1.55;;;23.70;58.30;;;;;;5015470;28;20263;-66
2022/06/25 06:37:37;;;;;;;1.30;1.17;;;23.80;58.40;;;;;;5015180;28;20315;-67
2022/06/25 06:40:04;;;;;;;2.35;1.48;;;23.80;58.40;;;;;;5014508;28;20250;-67
2022/06/25 06:42:29;;;;;;;4.18;1.98;;;23.80;58.30;;;;;;5015147;28;20185;-65
2022/06/25 06:44:55;;;;;;;2.95;1.58;;;23.80;58.40;;;;;;5014803;28;20180;-67
2022/06/25 06:47:20;;;;;;;3.40;1.30;;;23.80;58.30;;;;;;5014299;28;20231;-67
2022/06/25 06:49:46;;;;;;;2.25;1.45;;;23.80;58.30;;;;;;5014779;28;20173;-67
2022/06/25 06:52:11;;;;;;;3.03;1.60;;;23.80;58.30;;;;;;5014951;28;20626;-66
2022/06/25 06:54:37;;;;;;;3.05;1.70;;;23.80;58.30;;;;;;5013938;28;20208;-68
2022/06/25 06:57:03;;;;;;;6.97;1.92;;;23.70;58.30;;;;;;5014819;28;20172;-67
2022/06/25 06:59:28;;;;;;;1.88;1.58;;;23.70;58.30;;;;;;5014819;28;20648;-67
2022/06/25 07:01:54;;;;;;;3.45;1.45;;;23.70;58.30;;;;;;5013322;28;20687;-65
2022/06/25 07:04:19;;;;;;;2.50;1.58;;;23.80;58.30;;;;;;5014630;28;20631;-67
2022/06/25 07:06:45;;;;;;;2.03;1.90;;;23.70;58.30;;;;;;5014096;28;20220;-65
2022/06/25 07:09:10;;;;;;;5.78;1.90;;;23.80;58.40;;;;;;5014241;28;20173;-65
2022/06/25 07:11:36;;;;;;;3.10;1.65;;;23.70;58.20;;;;;;5014279;28;20180;-66
2022/06/25 07:14:04;;;;;;;3.83;1.95;;;23.80;58.30;;;;;;5012818;28;20169;-67
2022/06/25 07:16:29;;;;;;;2.05;1.45;;;23.80;58.30;;;;;;5014514;28;20184;-67
2022/06/25 07:18:56;;;;;;;2.22;1.30;;;23.90;58.30;;;;;;5014388;28;20634;-67
2022/06/25 07:21:21;;;;;;;1.83;1.50;;;23.90;58.30;;;;;;5013871;28;20187;-67
2022/06/25 07:23:47;;;;;;;2.20;1.55;;;23.80;58.20;;;;;;5013736;28;20177;-67
2022/06/25 07:26:12;;;;;;;2.75;1.73;;;23.80;58.30;;;;;;5013832;28;20196;-67
2022/06/25 07:28:38;;;;;;;2.67;1.45;;;23.90;58.30;;;;;;5013524;28;20674;-66
2022/06/25 07:31:04;;;;;;;1.63;1.30;;;23.80;58.30;;;;;;5014184;28;20259;-66
2022/06/25 07:33:29;;;;;;;2.25;2.05;;;23.80;58.30;;;;;;5014387;28;20183;-66
2022/06/25 07:35:56;;;;;;;4.00;1.58;;;23.90;58.30;;;;;;5013370;28;20539;-67
2022/06/25 07:38:21;;;;;;;3.33;1.48;;;23.90;58.20;;;;;;5014265;28;20180;-67
2022/06/25 07:40:47;;;;;;;2.80;1.70;;;23.90;58.10;;;;;;5013683;28;20268;-67
2022/06/25 07:43:12;;;;;;;3.92;1.48;;;23.90;58.10;;;;;;5013386;28;20176;-67
2022/06/25 07:45:38;;;;;;;1.70;1.52;;;23.90;58.10;;;;;;5013561;28;20223;-67
2022/06/25 07:48:04;;;;;;;1.58;1.48;;;24.00;58.10;;;;;;5014034;28;20172;-67
2022/06/25 07:53:13;;;;;;;1.48;1.38;;;24.00;58.00;;;;;;5013962;28;20594;-67
2022/06/25 07:55:39;;;;;;;2.75;1.85;;;24.00;58.00;;;;;;5013575;28;20172;-67
2022/06/25 07:58:05;;;;;;;2.40;1.80;;;24.10;57.90;;;;;;5012846;28;20180;-67
2022/06/25 08:00:30;;;;;;;1.95;1.55;;;24.10;57.90;;;;;;5013614;28;20169;-66
2022/06/25 08:02:56;;;;;;;2.72;1.45;;;24.10;57.90;;;;;;5013292;28;20228;-67
2022/06/25 08:05:21;;;;;;;1.70;1.30;;;24.10;57.90;;;;;;5013001;28;20256;-66
2022/06/25 08:07:48;;;;;;;1.58;1.48;;;24.10;58.50;;;;;;5013237;28;20215;-66
2022/06/25 08:10:14;;;;;;;1.83;1.50;;;24.20;58.00;;;;;;5012902;28;20179;-66
2022/06/25 08:12:40;;;;;;;1.50;1.20;;;24.20;57.80;;;;;;5013320;28;20184;-67
2022/06/25 08:15:06;;;;;;;1.98;1.40;;;24.10;57.80;;;;;;5013316;28;20185;-67
2022/06/25 08:17:34;;;;;;;1.80;1.60;;;24.20;57.80;;;;;;5012714;28;20183;-67
2022/06/25 08:19:59;;;;;;;1.58;1.40;;;24.20;57.90;;;;;;5013418;28;20208;-67
2022/06/25 08:22:25;;;;;;;1.20;1.10;;;24.10;57.80;;;;;;5013518;28;20172;-67
2022/06/25 08:24:51;;;;;;;2.42;1.63;;;24.10;58.50;;;;;;5012468;28;20635;-67
2022/06/25 08:27:16;;;;;;;1.35;1.25;;;24.10;58.00;;;;;;5013213;28;20269;-66
2022/06/25 08:29:42;;;;;;;1.88;1.33;;;24.10;58.00;;;;;;5012895;28;20266;-66
2022/06/25 08:32:07;;;;;;;1.33;1.23;;;24.10;58.00;;;;;;5012399;28;20192;-66
2022/06/25 08:34:33;;;;;;;1.85;1.58;;;24.10;58.00;;;;;;5013469;28;20179;-66
2022/06/25 08:36:58;;;;;;;1.38;1.27;;;24.10;58.00;;;;;;5012060;28;20185;-67
2022/06/25 08:39:24;;;;;;;2.00;1.50;;;24.10;58.00;;;;;;5012367;28;20183;-66
2022/06/25 08:41:50;;;;;;;1.60;1.50;;;24.10;58.00;;;;;;5012824;28;20328;-67
2022/06/25 08:44:15;;;;;;;1.30;1.20;;;24.10;58.10;;;;;;4995785;28;20180;-67
2022/06/25 08:46:41;;;;;;;1.40;1.25;;;24.10;58.20;;;;;;5012479;28;20226;-67
2022/06/25 08:49:06;;;;;;;1.30;1.30;;;24.10;58.20;;;;;;5013065;28;20241;-66
2022/06/25 08:51:32;;;;;;;3.25;1.70;;;24.10;58.20;;;;;;4979631;28;20664;-67
2022/06/25 08:53:58;;;;;;;1.55;1.45;;;24.00;58.20;;;;;;5012011;28;20611;-67
2022/06/25 08:56:24;;;;;;;1.75;1.63;;;24.10;58.10;;;;;;5012966;28;20263;-67
2022/06/25 08:58:49;;;;;;;1.50;1.40;;;24.20;58.00;;;;;;5012694;28;20705;-67
2022/06/25 09:01:15;;;;;;;1.20;1.10;;;24.20;58.00;;;;;;5012343;28;20219;-66
2022/06/25 09:03:41;;;;;;;1.48;1.38;;;24.20;57.80;;;;;;5012890;28;20208;-66
2022/06/25 09:06:11;;;;;;;1.63;1.35;;;24.20;57.90;;;;;;5012824;28;20243;-66
2022/06/25 09:08:37;;;;;;;1.85;1.30;;;24.10;57.90;;;;;;5012135;28;20180;-65
2022/06/25 09:11:02;;;;;;;1.30;1.20;;;24.10;58.00;;;;;;5012781;28;20183;-66
2022/06/25 09:13:28;;;;;;;1.77;1.30;;;24.20;58.00;;;;;;5012088;28;20177;-67
2022/06/25 09:15:53;;;;;;;1.38;1.27;;;24.20;58.00;;;;;;5012452;28;20173;-67
2022/06/25 09:18:19;;;;;;;1.42;1.00;;;24.20;58.10;;;;;;5012886;28;20185;-67
2022/06/25 09:21:04;;;;;;;1.90;1.45;;;24.20;58.00;;;;;;5011943;28;20600;-67
2022/06/25 09:23:31;;;;;;;1.23;1.13;;;24.20;58.00;;;;;;5012771;28;20181;-67
2022/06/25 09:26:02;;;;;;;1.55;1.45;;;24.20;57.90;;;;;;5012462;28;20216;-67
2022/06/25 09:28:39;;;;;;;1.40;1.13;;;24.30;57.80;;;;;;5012149;28;20176;-66
2022/06/25 09:31:05;;;;;;;0.93;0.93;;;24.30;57.70;;;;;;5012630;28;20251;-66
2022/06/25 09:33:31;;;;;;;1.70;1.45;;;24.40;57.70;;;;;;4995333;28;20694;-66
2022/06/25 09:35:56;;;;;;;1.20;1.10;;;24.40;57.60;;;;;;5011577;28;20181;-66
2022/06/25 09:38:23;;;;;;;1.00;1.00;;;24.50;57.50;;;;;;5012777;28;20169;-66
2022/06/25 09:40:58;;;;;;;1.80;1.40;;;24.50;57.50;;;;;;5012669;28;20203;-66
2022/06/25 09:43:36;;;;;;;1.67;1.13;;;24.40;57.60;;;;;;5012026;28;20254;-67
2022/06/25 09:46:04;;;;;;;1.50;1.33;;;24.30;57.80;;;;;;5012345;28;20645;-66
2022/06/25 09:48:31;;;;;;;1.38;1.25;;;24.30;57.90;;;;;;5014588;28;20246;-66
2022/06/25 09:51:09;;;;;;;1.33;1.13;;;24.20;57.90;;;;;;5015512;28;20242;-66
2022/06/25 09:53:56;;;;;;;1.30;1.20;;;24.20;58.00;;;;;;5016025;28;20492;-66
2022/06/25 09:56:23;;;;;;;2.05;1.30;;;24.20;58.00;;;;;;5014983;28;20348;-67
2022/06/25 09:58:49;;;;;;;1.58;1.33;;;24.20;58.00;;;;;;5015761;28;20176;-67
2022/06/25 10:01:16;;;;;;;1.25;1.15;;;24.20;58.00;;;;;;5015788;28;20184;-66
2022/06/25 10:03:42;;;;;;;1.20;1.10;;;24.20;58.00;;;;;;5015217;28;20200;-66
2022/06/25 10:06:08;;;;;;;2.35;1.20;;;24.20;58.00;;;;;;5015797;28;20215;-66
2022/06/25 10:08:33;;;;;;;1.17;0.88;;;24.20;58.00;;;;;;4998348;28;20176;-65
2022/06/25 10:10:59;;;;;;;1.20;1.10;;;24.20;58.00;;;;;;4997296;28;20272;-66
2022/06/25 10:13:24;;;;;;;1.45;1.20;;;24.20;58.00;;;;;;4998273;28;20176;-66
2022/06/25 10:15:50;;;;;;;1.65;1.30;;;24.20;58.00;;;;;;4997781;28;20191;-67
2022/06/25 10:18:16;;;;;;;2.05;1.25;;;24.20;57.80;;;;;;5015117;28;20211;-67
2022/06/25 10:20:42;;;;;;;1.30;1.20;;;24.20;57.90;;;;;;4997953;28;20189;-67
2022/06/25 10:23:09;;;;;;;1.33;1.17;;;24.30;58.00;;;;;;5015572;28;20177;-67
2022/06/25 10:25:34;;;;;;;1.23;1.10;;;24.20;57.90;;;;;;5014767;28;20179;-67
2022/06/25 10:28:14;;;;;;;1.73;1.00;;;24.20;57.90;;;;;;4997657;28;20646;-66
2022/06/25 10:30:47;;;;;;;2.13;0.90;;;24.20;57.90;;;;;;5015266;28;20168;-66
2022/06/25 10:33:14;;;;;;;1.15;1.05;;;24.20;58.00;;;;;;5015366;28;20251;-66
2022/06/25 10:35:40;;;;;;;1.88;1.23;;;24.20;58.00;;;;;;5014854;28;20593;-66
2022/06/25 10:38:16;;;;;;;1.17;1.08;;;24.20;58.00;;;;;;5014444;28;20210;-66
2022/06/25 10:40:49;;;;;;;1.58;1.30;;;24.20;58.00;;;;;;5015054;28;20179;-66
2022/06/25 10:43:33;;;;;;;0.95;0.95;;;24.20;58.00;;;;;;5015349;28;20184;-67
2022/06/25 10:45:58;;;;;;;1.42;1.25;;;24.10;58.00;;;;;;5014148;28;20211;-66
2022/06/25 10:48:24;;;;;;;1.17;1.10;;;24.20;58.00;;;;;;5015155;28;20176;-66
2022/06/25 10:50:50;;;;;;;1.15;1.13;;;24.10;57.90;;;;;;4981117;28;20187;-66
2022/06/25 10:53:15;;;;;;;1.90;1.27;;;24.20;58.00;;;;;;5014351;28;20646;-66
2022/06/25 10:55:57;;;;;;;1.25;1.00;;;24.20;58.00;;;;;;5014944;28;20204;-67
2022/06/25 10:58:24;;;;;;;0.98;0.98;;;24.20;58.00;;;;;;5014993;28;20207;-67
2022/06/25 11:00:51;;;;;;;1.23;1.13;;;24.10;57.90;;;;;;5013040;28;20558;-66
2022/06/25 11:03:37;;;;;;;1.33;1.20;;;24.10;57.90;;;;;;5014612;28;20236;-66
2022/06/25 11:06:22;;;;;;;1.27;1.00;;;24.10;57.90;;;;;;4999778;28;20251;-66
2022/06/25 11:08:48;;;;;;;1.63;1.10;;;24.10;58.00;;;;;;5014331;28;20182;-65
2022/06/25 11:11:27;;;;;;;1.30;0.90;;;24.10;57.90;;;;;;5014708;28;20184;-66
2022/06/25 11:13:53;;;;;;;1.50;1.40;;;24.10;57.90;;;;;;4997968;28;20177;-66
2022/06/25 11:16:19;;;;;;;1.30;1.20;;;24.10;57.90;;;;;;5014587;28;20509;-67
2022/06/25 11:18:55;;;;;;;1.08;0.98;;;24.10;57.80;;;;;;5014509;28;20177;-67
2022/06/25 11:21:37;;;;;;;1.23;1.13;;;24.10;57.80;;;;;;5013942;28;20212;-67
2022/06/25 11:24:15;;;;;;;1.58;1.10;;;24.10;57.90;;;;;;5014318;28;20701;-67
2022/06/25 11:29:34;;;;;;;2.35;1.20;;;24.10;57.90;;;;;;5014337;28;20172;-66
2022/06/25 11:32:00;;;;;;;0.85;0.85;;;24.10;57.90;;;;;;5014333;28;20184;-66
2022/06/25 11:34:26;;;;;;;1.65;1.20;;;24.00;57.90;;;;;;5013577;28;20173;-65
2022/06/25 11:37:01;;;;;;;1.13;1.00;;;24.10;57.90;;;;;;5013876;28;20212;-66
2022/06/25 11:39:28;;;;;;;1.58;1.10;;;24.10;57.90;;;;;;5014415;28;20183;-66
2022/06/25 11:41:53;;;;;;;1.42;1.00;;;24.10;57.80;;;;;;5013309;28;20259;-67
2022/06/25 11:44:19;;;;;;;1.10;1.00;;;24.10;57.70;;;;;;5014085;28;20268;-66
2022/06/25 11:46:46;;;;;;;1.20;1.10;;;24.20;57.70;;;;;;5013932;28;20202;-66
2022/06/25 11:49:12;;;;;;;0.93;0.93;;;24.20;58.30;;;;;;5013423;28;20251;-66
2022/06/25 11:51:43;;;;;;;2.70;1.30;;;24.20;57.60;;;;;;5013697;28;20263;-66
2022/06/25 11:54:09;;;;;;;1.77;1.10;;;24.20;57.50;;;;;;5014052;28;20180;-66
2022/06/25 11:56:34;;;;;;;1.13;1.00;;;24.20;57.50;;;;;;4995826;28;20507;-66
2022/06/25 11:59:00;;;;;;;0.90;0.90;;;24.30;57.50;;;;;;5013597;28;20818;-67
2022/06/25 12:01:29;;;;;;;1.63;1.20;;;24.30;57.50;;;;;;5013829;28;20259;-66
2022/06/25 12:03:55;;;;;;;1.15;0.80;;;24.30;57.40;;;;;;5012600;28;20192;-66
2022/06/25 12:06:22;;;;;;;1.92;0.95;;;24.30;57.40;;;;;;5013874;28;20212;-65
2022/06/25 12:08:48;;;;;;;2.35;1.10;;;24.30;57.40;;;;;;4996204;28;20259;-65
2022/06/25 12:11:13;;;;;;;0.98;0.88;;;24.40;57.40;;;;;;4995407;28;20267;-66
2022/06/25 12:13:39;;;;;;;1.00;1.00;;;24.50;57.40;;;;;;5013457;28;20251;-66
2022/06/25 12:16:04;;;;;;;1.95;1.10;;;24.50;57.40;;;;;;4979805;28;20177;-66
2022/06/25 12:18:34;;;;;;;1.73;1.20;;;24.50;57.30;;;;;;5012661;28;20176;-67
2022/06/25 12:21:00;;;;;;;0.70;0.70;;;24.50;57.20;;;;;;5013526;28;20184;-67
2022/06/25 12:23:26;;;;;;;1.25;1.00;;;24.50;57.20;;;;;;5012779;28;20173;-67
2022/06/25 12:25:51;;;;;;;1.20;1.10;;;24.50;57.10;;;;;;5012970;28;20710;-67
2022/06/25 12:28:17;;;;;;;1.00;1.00;;;24.50;57.20;;;;;;5013459;28;20220;-66
2022/06/25 12:30:42;;;;;;;0.93;0.93;;;24.50;57.30;;;;;;4994783;28;20624;-66
2022/06/25 12:33:13;;;;;;;1.15;1.00;;;24.50;57.30;;;;;;4979474;28;20642;-66
2022/06/25 12:35:42;;;;;;;1.05;1.00;;;24.60;57.20;;;;;;5013268;28;20208;-66
2022/06/25 12:38:09;;;;;;;1.30;1.02;;;24.60;57.20;;;;;;5012599;28;20223;-66
2022/06/25 12:40:39;;;;;;;1.05;0.90;;;24.60;57.20;;;;;;5012332;28;20618;-66
2022/06/25 12:43:09;;;;;;;1.77;1.10;;;24.60;57.20;;;;;;5012927;28;20686;-67
2022/06/25 12:45:35;;;;;;;1.35;1.00;;;24.60;57.30;;;;;;5012300;28;20228;-66
2022/06/25 12:48:01;;;;;;;0.90;0.90;;;24.50;57.30;;;;;;5013126;28;20295;-66
2022/06/25 12:50:39;;;;;;;0.95;0.95;;;24.60;57.20;;;;;;5012998;28;20263;-66
2022/06/25 12:53:13;;;;;;;0.85;0.85;;;24.80;57.10;;;;;;5012426;28;20184;-66
2022/06/25 12:55:39;;;;;;;1.10;1.00;;;24.80;56.90;;;;;;5012775;28;20177;-66
2022/06/25 12:58:06;;;;;;;1.13;1.00;;;24.90;56.80;;;;;;5012836;28;20255;-66
2022/06/25 13:00:33;;;;;;;1.15;0.80;;;25.00;56.70;;;;;;5012286;28;20635;-66
2022/06/25 13:02:59;;;;;;;1.38;1.02;;;25.00;56.60;;;;;;5012687;28;20291;-66
2022/06/25 13:05:24;;;;;;;1.50;1.02;;;24.90;56.60;;;;;;5012994;28;20176;-66
2022/06/25 13:07:50;;;;;;;1.10;1.10;;;24.90;56.80;;;;;;5011981;28;20227;-65
2022/06/25 13:10:16;;;;;;;0.82;0.82;;;24.80;56.90;;;;;;5013124;28;20172;-65